Time;durP1;ratioP1;P1;durP2;ratioP2;P2;SDS_P1;SDS_P2;PMS_P1;PMS_P2;Temp;Humidity;BMP_temperature;BMP_pressure;BME280_temperature;BME280_humidity;BME280_pressure;Samples;Min_cycle;Max_cycle;Signal;HPM_P1;HPM_P2
2023/06/10 00:01:05;;;;;;;8.90;7.00;;;;;;;14.10;97.35;100478.02;104932;1265;69206;-64
2023/06/10 00:03:54;;;;;;;8.90;7.80;;;;;;;14.04;97.51;100480.39;104915;1262;75913;-63
2023/06/10 00:06:24;;;;;;;8.30;7.40;;;;;;;14.01;97.64;100480.73;104949;1274;83193;-63
2023/06/10 00:08:55;;;;;;;8.80;7.60;;;;;;;14.02;98.06;100479.81;104983;1265;72863;-66
2023/06/10 00:11:27;;;;;;;10.10;6.80;;;;;;;13.98;97.89;100479.48;104997;1265;69226;-63
2023/06/10 00:13:59;;;;;;;8.40;7.60;;;;;;;13.97;98.02;100484.30;104955;1260;69702;-64
2023/06/10 00:16:30;;;;;;;9.50;7.30;;;;;;;13.95;98.23;100483.48;104991;1266;75009;-62
2023/06/10 00:19:06;;;;;;;8.30;7.50;;;;;;;13.93;98.22;100482.54;104943;1264;83402;-62
2023/06/10 00:21:40;;;;;;;8.90;7.50;;;;;;;13.92;98.62;100479.79;104988;1265;74023;-65
2023/06/10 00:24:14;;;;;;;9.20;7.10;;;;;;;13.93;98.75;100476.05;104984;1266;69196;-62
2023/06/10 00:26:46;;;;;;;10.20;7.40;;;;;;;13.92;98.67;100474.70;104964;1265;69307;-64
2023/06/10 00:29:15;;;;;;;10.30;7.30;;;;;;;13.90;98.76;100474.78;104979;1274;74281;-65
2023/06/10 00:31:47;;;;;;;8.50;7.30;;;;;;;13.88;98.80;100472.23;105018;1266;83828;-64
2023/06/10 00:34:19;;;;;;;8.30;7.50;;;;;;;13.89;99.19;100474.32;104984;1266;72819;-65
2023/06/10 00:36:50;;;;;;;8.00;7.20;;;;;;;13.92;99.51;100471.15;104946;1266;69560;-65
2023/06/10 00:39:21;;;;;;;10.90;8.90;;;;;;;13.95;99.69;100468.18;104979;1266;69131;-67
2023/06/10 00:41:52;;;;;;;9.40;7.70;;;;;;;14.00;99.97;100470.77;104895;1260;74860;-62
2023/06/10 00:44:24;;;;;;;10.40;7.20;;;;;;;14.06;100.00;100472.06;104959;1265;83583;-64
2023/06/10 00:46:56;;;;;;;9.30;7.50;;;;;;;14.09;99.99;100473.66;104893;1265;73889;-63
2023/06/10 00:49:27;;;;;;;8.50;7.70;;;;;;;14.09;99.97;100474.55;104967;1266;69551;-65
2023/06/10 00:51:56;;;;;;;10.20;7.20;;;;;;;14.09;99.88;100475.42;105013;1262;69212;-63
2023/06/10 00:54:25;;;;;;;11.40;8.10;;;;;;;14.09;99.99;100479.13;105050;1266;74840;-63
2023/06/10 00:56:55;;;;;;;10.60;7.70;;;;;;;14.11;100.00;100480.59;104864;1268;83412;-64
2023/06/10 00:59:25;;;;;;;9.30;8.30;;;;;;;14.14;100.00;100481.67;104846;1266;72704;-63
2023/06/10 01:01:53;;;;;;;7.50;6.50;;;;;;;14.16;100.00;100478.05;104984;1266;69183;-63
2023/06/10 01:04:23;;;;;;;9.40;7.70;;;;;;;14.17;100.00;100479.55;104837;1276;69240;-62
2023/06/10 01:07:01;;;;;;;9.20;7.50;;;;;;;14.17;100.00;100478.86;105020;1264;73847;-64
2023/06/10 01:10:06;;;;;;;8.20;7.30;;;;;;;14.18;100.00;100483.04;105038;1266;83641;-60
2023/06/10 01:13:06;;;;;;;7.70;6.60;;;;;;;14.17;100.00;100485.39;104650;1266;73486;-63
2023/06/10 01:15:35;;;;;;;11.30;7.70;;;;;;;14.19;100.00;100484.77;104828;1262;69054;-63
2023/06/10 01:18:14;;;;;;;7.90;7.10;;;;;;;14.19;100.00;100482.80;104858;1267;69205;-62
2023/06/10 01:20:46;;;;;;;7.80;7.00;;;;;;;14.22;100.00;100481.45;104865;1265;74327;-60
2023/06/10 01:23:15;;;;;;;8.90;7.60;;;;;;;14.24;100.00;100483.79;104848;1262;82710;-61
2023/06/10 01:25:55;;;;;;;11.00;8.10;;;;;;;14.27;100.00;100485.38;104892;1263;72649;-63
2023/06/10 01:28:35;;;;;;;9.60;8.30;;;;;;;14.32;100.00;100481.30;104860;1267;69208;-62
2023/06/10 01:31:16;;;;;;;10.40;7.50;;;;;;;14.34;100.00;100476.98;104724;1262;69638;-63
2023/06/10 01:33:49;;;;;;;9.40;8.20;;;;;;;14.36;100.00;100478.79;104908;1263;74643;-63
2023/06/10 01:36:19;;;;;;;11.70;8.50;;;;;;;14.38;100.00;100481.48;104846;1265;83331;-63
2023/06/10 01:38:48;;;;;;;10.10;8.90;;;;;;;14.42;100.00;100479.36;104858;1269;73915;-64
2023/06/10 01:41:17;;;;;;;12.00;9.20;;;;;;;14.44;100.00;100479.77;104867;1276;69228;-65
2023/06/10 01:43:46;;;;;;;12.30;9.90;;;;;;;14.49;100.00;100482.34;104805;1264;69204;-63
2023/06/10 01:46:19;;;;;;;10.70;9.10;;;;;;;14.53;100.00;100487.63;104838;1264;73866;-63
2023/06/10 01:48:48;;;;;;;11.20;10.00;;;;;;;14.55;100.00;100488.23;104839;1265;83773;-65
2023/06/10 01:51:17;;;;;;;11.20;10.00;;;;;;;14.57;100.00;100488.66;104803;1264;73383;-64
2023/06/10 01:53:45;;;;;;;12.20;10.10;;;;;;;14.57;100.00;100483.17;104884;1264;69129;-63
2023/06/10 01:56:19;;;;;;;11.50;10.30;;;;;;;14.57;100.00;100489.69;104912;1276;69243;-62
2023/06/10 01:58:48;;;;;;;13.00;11.00;;;;;;;14.58;100.00;100487.91;104770;1268;73859;-63
2023/06/10 02:01:17;;;;;;;11.40;10.10;;;;;;;14.56;100.00;100492.02;104895;1265;83106;-61
2023/06/10 02:03:46;;;;;;;11.20;10.10;;;;;;;14.54;100.00;100488.25;104912;1266;73730;-63
2023/06/10 02:06:14;;;;;;;12.30;10.20;;;;;;;14.48;100.00;100491.69;104742;1265;69242;-63
2023/06/10 02:08:43;;;;;;;13.80;10.30;;;;;;;14.40;100.00;100488.06;104761;1265;69555;-61
2023/06/10 02:11:12;;;;;;;11.30;10.30;;;;;;;14.32;100.00;100488.83;104856;1267;75020;-60
2023/06/10 02:13:43;;;;;;;12.50;11.00;;;;;;;14.29;100.00;100484.40;104802;1264;83927;-65
2023/06/10 02:16:12;;;;;;;12.40;11.20;;;;;;;14.28;100.00;100486.90;104727;1265;72622;-61
2023/06/10 02:18:42;;;;;;;12.00;10.80;;;;;;;14.25;100.00;100490.08;104807;1264;69139;-66
2023/06/10 02:21:11;;;;;;;;;;;;;;;14.22;100.00;100488.30;104866;1265;69553;-60
2023/06/10 02:23:40;;;;;;;12.90;11.10;;;;;;;14.16;100.00;100486.48;104795;1269;74819;-61
2023/06/10 02:26:09;;;;;;;14.80;11.70;;;;;;;14.12;100.00;100486.19;104806;1265;83588;-62
2023/06/10 02:28:38;;;;;;;14.50;12.00;;;;;;;14.09;100.00;100491.05;104750;1265;73801;-64
2023/06/10 02:31:07;;;;;;;12.50;11.10;;;;;;;14.06;100.00;100493.48;104877;1268;69257;-62
2023/06/10 02:33:39;;;;;;;16.20;11.40;;;;;;;14.03;100.00;100495.20;104870;1266;69208;-62
2023/06/10 02:36:12;;;;;;;13.70;11.10;;;;;;;14.04;100.00;100497.79;104819;1270;74029;-61
2023/06/10 02:38:42;;;;;;;14.20;12.00;;;;;;;14.07;100.00;100496.41;104849;1267;83088;-62
2023/06/10 02:41:11;;;;;;;14.90;12.50;;;;;;;14.12;100.00;100498.10;104860;1264;73774;-66
2023/06/10 02:43:39;;;;;;;13.10;11.80;;;;;;;14.17;100.00;100502.08;104756;1277;69249;-61
2023/06/10 02:46:11;;;;;;;17.00;12.30;;;;;;;14.19;100.00;100503.71;104938;1267;69223;-61
2023/06/10 02:48:45;;;;;;;13.30;11.90;;;;;;;14.21;100.00;100504.30;104811;1264;74973;-60
2023/06/10 02:51:19;;;;;;;13.80;12.40;;;;;;;14.24;100.00;100509.10;104778;1269;83207;-63
2023/06/10 02:53:59;;;;;;;15.00;12.70;;;;;;;14.26;100.00;100509.36;104837;1267;73506;-63
2023/06/10 02:56:28;;;;;;;14.50;12.10;;;;;;;14.28;100.00;100515.92;104786;1267;69820;-61
2023/06/10 02:59:01;;;;;;;14.70;12.10;;;;;;;14.31;100.00;100515.46;104834;1265;69203;-63
2023/06/10 03:01:31;;;;;;;13.30;11.90;;;;;;;14.32;100.00;100515.38;104765;1277;74948;-64
2023/06/10 03:04:05;;;;;;;14.00;12.50;;;;;;;14.36;100.00;100517.45;104876;1264;83308;-62
2023/06/10 03:06:35;;;;;;;16.40;12.80;;;;;;;14.40;100.00;100519.71;104805;1266;72673;-66
2023/06/10 03:09:15;;;;;;;14.90;12.20;;;;;;;14.42;100.00;100516.11;104859;1267;69226;-60
2023/06/10 03:11:45;;;;;;;14.80;12.60;;;;;;;14.45;100.00;100520.49;104799;1267;69193;-63
2023/06/10 03:14:17;;;;;;;14.80;13.20;;;;;;;14.49;100.00;100519.42;104803;1269;74824;-61
2023/06/10 03:16:46;;;;;;;16.70;12.50;;;;;;;14.51;100.00;100520.17;104761;1267;83601;-63
2023/06/10 03:19:15;;;;;;;14.80;13.00;;;;;;;14.51;100.00;100521.95;104878;1264;73475;-64
2023/06/10 03:21:57;;;;;;;15.20;13.40;;;;;;;14.52;100.00;100526.35;104727;1262;69294;-65
2023/06/10 03:24:26;;;;;;;14.70;13.20;;;;;;;14.54;100.00;100529.95;104779;1266;69239;-62
2023/06/10 03:26:55;;;;;;;14.20;12.80;;;;;;;14.57;100.00;100525.20;104764;1264;74823;-61
2023/06/10 03:29:26;;;;;;;16.40;13.40;;;;;;;14.60;100.00;100526.14;104827;1268;82604;-64
2023/06/10 03:31:55;;;;;;;14.30;12.80;;;;;;;14.61;100.00;100524.32;104739;1276;73701;-61
2023/06/10 03:34:24;;;;;;;18.70;14.00;;;;;;;14.62;100.00;100525.14;104814;1264;69227;-61
2023/06/10 03:36:53;;;;;;;15.40;13.60;;;;;;;14.64;100.00;100523.95;104752;1263;69207;-63
2023/06/10 03:39:23;;;;;;;16.60;14.40;;;;;;;14.66;100.00;100519.30;104871;1266;75350;-62
2023/06/10 03:41:55;;;;;;;16.50;14.80;;;;;;;14.66;100.00;100525.79;104793;1264;83337;-65
2023/06/10 03:44:28;;;;;;;17.30;14.90;;;;;;;14.68;100.00;100519.71;104792;1268;72697;-61
2023/06/10 03:46:57;;;;;;;18.50;15.40;;;;;;;14.71;100.00;100525.19;104813;1266;69221;-61
2023/06/10 03:49:29;;;;;;;19.40;15.40;;;;;;;14.73;100.00;100525.59;104811;1262;69113;-65
2023/06/10 03:52:01;;;;;;;17.60;15.50;;;;;;;14.75;100.00;100524.98;104773;1264;74901;-63
2023/06/10 03:54:34;;;;;;;18.80;15.40;;;;;;;14.76;100.00;100530.18;104816;1265;83735;-63
2023/06/10 03:57:06;;;;;;;19.00;16.90;;;;;;;14.79;100.00;100529.86;104729;1263;72756;-62
2023/06/10 03:59:35;;;;;;;21.60;16.50;;;;;;;14.82;100.00;100531.80;104830;1264;69180;-63
2023/06/10 04:02:06;;;;;;;17.80;15.90;;;;;;;14.84;100.00;100536.80;104835;1264;69050;-61
2023/06/10 04:04:40;;;;;;;19.30;16.60;;;;;;;14.85;100.00;100532.19;104826;1267;75081;-61
2023/06/10 04:07:09;;;;;;;17.60;15.40;;;;;;;14.85;100.00;100530.78;104812;1265;83363;-64
2023/06/10 04:09:41;;;;;;;18.30;16.40;;;;;;;14.87;100.00;100535.42;104787;1266;73435;-60
2023/06/10 04:12:10;;;;;;;23.30;16.40;;;;;;;14.88;100.00;100540.12;104732;1265;69217;-65
2023/06/10 04:14:38;;;;;;;20.20;16.60;;;;;;;14.89;100.00;100537.41;104873;1265;69217;-61
2023/06/10 04:17:11;;;;;;;22.60;15.60;;;;;;;14.88;100.00;100546.45;104769;1260;74842;-60
2023/06/10 04:19:40;;;;;;;17.90;16.00;;;;;;;14.89;100.00;100547.44;104906;1260;81992;-61
2023/06/10 04:22:08;;;;;;;17.80;15.90;;;;;;;14.90;100.00;100548.80;104886;1268;73379;-61
2023/06/10 04:24:37;;;;;;;17.30;15.30;;;;;;;14.91;100.00;100546.63;104989;1264;69600;-62
2023/06/10 04:27:06;;;;;;;18.60;16.20;;;;;;;14.92;100.00;100549.05;104989;1263;69083;-61
2023/06/10 04:29:36;;;;;;;20.10;16.30;;;;;;;14.92;100.00;100553.60;104970;1264;74836;-60
2023/06/10 04:32:06;;;;;;;18.50;15.40;;;;;;;14.92;100.00;100550.64;105013;1260;83520;-62
2023/06/10 04:34:38;;;;;;;18.20;15.90;;;;;;;14.90;100.00;100547.41;105035;1260;72731;-61
2023/06/10 04:37:08;;;;;;;18.80;15.70;;;;;;;14.90;100.00;100549.16;104939;1265;69238;-59
2023/06/10 04:39:36;;;;;;;17.50;15.70;;;;;;;14.91;100.00;100547.36;104955;1265;69230;-59
2023/06/10 04:42:08;;;;;;;19.50;16.20;;;;;;;14.95;100.00;100544.68;104790;1266;74642;-61
2023/06/10 04:44:40;;;;;;;18.70;15.10;;;;;;;14.97;100.00;100546.90;104980;1266;83352;-63
2023/06/10 04:47:09;;;;;;;19.60;15.60;;;;;;;14.99;100.00;100553.10;104881;1266;73681;-60
2023/06/10 04:49:39;;;;;;;;;;;;;;;15.00;100.00;100552.70;104979;1266;69209;-60
2023/06/10 04:52:08;;;;;;;19.90;16.00;;;;;;;15.02;100.00;100549.44;104913;1260;69687;-59
2023/06/10 04:54:38;;;;;;;19.80;16.70;;;;;;;15.04;100.00;100554.04;104938;1261;73968;-59
2023/06/10 04:57:07;;;;;;;21.90;16.90;;;;;;;15.09;100.00;100557.85;104899;1265;83516;-60
2023/06/10 04:59:37;;;;;;;18.70;16.70;;;;;;;15.11;100.00;100552.83;105009;1261;73983;-60
2023/06/10 05:02:06;;;;;;;;;;;;;;;15.14;100.00;100558.98;104833;1260;69197;-60
2023/06/10 05:04:35;;;;;;;19.20;17.10;;;;;;;15.19;100.00;100568.20;104915;1261;69177;-59
2023/06/10 05:07:04;;;;;;;20.50;17.40;;;;;;;15.24;100.00;100572.56;104755;1267;75080;-59
2023/06/10 05:09:33;;;;;;;19.30;17.40;;;;;;;15.29;100.00;100572.41;104892;1261;83353;-59
2023/06/10 05:12:02;;;;;;;19.00;16.40;;;;;;;15.36;100.00;100570.31;104922;1266;73700;-61
2023/06/10 05:14:33;;;;;;;22.40;18.80;;;;;;;15.43;100.00;100577.69;104936;1260;69200;-61
2023/06/10 05:17:05;;;;;;;20.90;18.10;;;;;;;15.51;100.00;100579.70;104953;1260;69226;-61
2023/06/10 05:19:35;;;;;;;21.80;17.90;;;;;;;15.58;100.00;100582.46;104955;1260;73755;-59
2023/06/10 05:22:05;;;;;;;19.70;17.60;;;;;;;15.66;100.00;100583.45;104860;1266;83460;-60
2023/06/10 05:24:33;;;;;;;23.80;18.60;;;;;;;15.76;100.00;100583.31;104978;1260;73772;-60
2023/06/10 05:27:02;;;;;;;19.60;17.70;;;;;;;15.83;100.00;100582.52;105009;1261;69183;-60
2023/06/10 05:29:31;;;;;;;22.00;19.70;;;;;;;15.92;100.00;100582.77;104899;1274;69219;-60
2023/06/10 05:32:02;;;;;;;21.80;19.60;;;;;;;16.00;100.00;100585.98;105015;1261;75297;-60
2023/06/10 05:34:32;;;;;;;25.60;19.10;;;;;;;16.07;100.00;100586.30;105005;1266;83329;-59
2023/06/10 05:37:00;;;;;;;20.20;18.10;;;;;;;16.13;100.00;100588.62;105085;1264;73863;-60
2023/06/10 05:39:29;;;;;;;21.70;19.40;;;;;;;16.20;100.00;100591.21;104912;1260;69231;-59
2023/06/10 05:41:59;;;;;;;21.60;19.40;;;;;;;16.24;99.97;100591.30;104859;1261;69230;-60
2023/06/10 05:44:27;;;;;;;26.60;18.60;;;;;;;16.28;99.91;100597.08;105031;1260;74605;-60
2023/06/10 05:46:56;;;;;;;23.20;19.70;;;;;;;16.34;99.90;100603.44;104788;1267;82647;-60
2023/06/10 05:49:24;;;;;;;22.10;19.70;;;;;;;16.40;99.99;100599.21;104865;1260;72862;-60
2023/06/10 05:51:53;;;;;;;21.40;19.20;;;;;;;16.46;99.76;100600.11;104794;1260;69535;-60
2023/06/10 05:54:21;;;;;;;22.20;19.90;;;;;;;16.51;99.67;100601.58;104925;1265;69195;-62
2023/06/10 05:56:49;;;;;;;24.60;20.60;;;;;;;16.56;99.44;100604.99;105009;1265;74899;-61
2023/06/10 05:59:18;;;;;;;25.80;20.60;;;;;;;16.63;99.53;100603.88;104946;1265;212731;-62
2023/06/10 06:01:47;;;;;;;24.00;21.10;;;;;;;16.71;99.34;100611.67;104981;1260;73982;-62
2023/06/10 06:04:16;;;;;;;24.70;21.30;;;;;;;16.76;99.06;100607.34;104843;1261;69273;-61
2023/06/10 06:06:44;;;;;;;22.90;20.40;;;;;;;16.83;99.06;100605.88;104956;1260;69175;-63
2023/06/10 06:09:12;;;;;;;24.70;20.60;;;;;;;16.91;99.08;100607.52;105004;1260;74814;-62
2023/06/10 06:11:41;;;;;;;21.60;19.40;;;;;;;16.99;98.94;100608.80;104873;1265;83851;-61
2023/06/10 06:14:09;;;;;;;22.10;19.90;;;;;;;17.07;99.03;100610.25;104907;1261;72376;-63
2023/06/10 06:16:38;;;;;;;23.50;21.00;;;;;;;17.15;98.86;100610.66;104927;1266;69209;-59
2023/06/10 06:19:07;;;;;;;22.00;19.50;;;;;;;17.25;98.94;100616.79;104999;1265;69222;-61
2023/06/10 06:21:35;;;;;;;23.60;20.80;;;;;;;17.36;99.04;100613.61;104802;1266;72880;-59
2023/06/10 06:24:04;;;;;;;23.10;20.70;;;;;;;17.48;98.73;100614.66;104941;1261;83833;-54
2023/06/10 06:26:33;;;;;;;23.90;19.40;;;;;;;17.58;98.48;100610.65;104857;1260;72753;-65
2023/06/10 06:29:01;;;;;;;22.60;20.20;;;;;;;17.73;98.62;100616.23;104878;1261;69186;-63
2023/06/10 06:31:30;;;;;;;22.50;20.10;;;;;;;17.87;98.32;100623.86;104924;1265;69196;-64
2023/06/10 06:33:58;;;;;;;23.50;21.00;;;;;;;18.00;97.93;100630.44;104996;1262;75055;-64
2023/06/10 06:36:27;;;;;;;23.60;21.10;;;;;;;18.06;97.17;100632.88;104886;1260;83385;-65
2023/06/10 06:38:55;;;;;;;23.50;20.90;;;;;;;18.11;96.96;100632.06;104919;1260;73934;-65
2023/06/10 06:41:27;;;;;;;23.60;21.10;;;;;;;18.18;96.92;100637.08;104968;1263;69224;-62
2023/06/10 06:43:55;;;;;;;23.10;20.60;;;;;;;18.25;96.94;100640.52;104959;1265;69187;-62
2023/06/10 06:46:24;;;;;;;24.40;21.80;;;;;;;18.35;96.80;100641.48;104951;1267;73984;-64
2023/06/10 06:48:53;;;;;;;23.30;21.00;;;;;;;18.42;96.49;100642.95;104893;1262;83398;-62
2023/06/10 06:51:21;;;;;;;24.90;22.30;;;;;;;18.49;96.40;100640.34;104889;1261;72897;-63
2023/06/10 06:53:51;;;;;;;24.30;21.90;;;;;;;18.57;96.18;100642.14;104855;1263;69706;-63
2023/06/10 06:56:20;;;;;;;26.20;22.20;;;;;;;18.67;96.15;100647.13;104914;1265;69211;-64
2023/06/10 06:58:48;;;;;;;25.10;22.50;;;;;;;18.78;96.05;100650.71;104947;1264;75016;-63
2023/06/10 07:01:17;;;;;;;25.20;22.00;;;;;;;18.88;95.96;100658.30;104941;1260;83539;-64
2023/06/10 07:03:46;;;;;;;25.00;22.70;;;;;;;18.97;95.93;100662.66;104898;1261;73783;-64
2023/06/10 07:06:14;;;;;;;24.00;21.70;;;;;;;19.07;95.75;100660.91;104923;1261;69530;-63
2023/06/10 07:08:42;;;;;;;29.10;22.90;;;;;;;19.18;95.60;100662.63;104889;1262;69546;-63
2023/06/10 07:11:11;;;;;;;25.60;23.10;;;;;;;19.28;95.29;100661.05;104941;1260;74577;-64
2023/06/10 07:13:39;;;;;;;25.10;22.60;;;;;;;19.39;95.19;100663.98;104896;1265;83210;-62
2023/06/10 07:16:08;;;;;;;25.60;23.00;;;;;;;19.49;94.85;100668.48;104985;1266;73895;-64
2023/06/10 07:18:36;;;;;;;25.70;23.10;;;;;;;19.57;94.82;100669.46;105006;1260;69527;-64
2023/06/10 07:21:04;;;;;;;26.30;23.20;;;;;;;19.73;95.03;100669.27;105052;1260;69196;-62
2023/06/10 07:23:33;;;;;;;22.90;20.50;;;;;;;19.87;94.83;100664.73;104915;1265;74171;-62
2023/06/10 07:26:01;;;;;;;25.50;23.00;;;;;;;20.06;94.82;100673.98;104971;1265;83379;-61
2023/06/10 07:28:30;;;;;;;25.10;22.70;;;;;;;20.23;94.37;100677.02;104741;1265;72875;-62
2023/06/10 07:30:58;;;;;;;26.00;23.30;;;;;;;20.39;94.12;100679.56;104950;1260;69195;-63
2023/06/10 07:33:27;;;;;;;25.10;22.50;;;;;;;20.58;94.16;100678.92;104951;1265;69216;-64
2023/06/10 07:35:55;;;;;;;25.70;23.30;;;;;;;20.76;93.67;100674.95;104881;1260;75017;-62
2023/06/10 07:38:25;;;;;;;26.40;23.70;;;;;;;20.88;93.04;100680.20;104933;1265;83232;-63
2023/06/10 07:40:53;;;;;;;26.70;23.90;;;;;;;21.04;93.19;100684.20;104928;1260;73761;-65
2023/06/10 07:43:21;;;;;;;26.90;23.80;;;;;;;21.17;92.79;100683.14;104902;1261;69220;-66
2023/06/10 07:45:50;;;;;;;25.10;22.60;;;;;;;21.29;92.46;100684.71;104909;1265;69336;-63
2023/06/10 07:48:18;;;;;;;24.20;21.50;;;;;;;21.43;92.28;100676.25;104903;1265;74285;-63
2023/06/10 07:50:47;;;;;;;26.10;23.00;;;;;;;21.57;91.80;100676.71;104889;1266;82543;-61
2023/06/10 07:53:15;;;;;;;23.10;20.70;;;;;;;21.69;91.47;100677.91;104860;1260;73927;-64
2023/06/10 07:55:43;;;;;;;22.70;20.70;;;;;;;21.80;91.29;100673.12;104869;1261;69212;-67
2023/06/10 07:58:12;;;;;;;21.50;19.40;;;;;;;21.91;90.61;100675.83;105006;1260;69107;-62
2023/06/10 08:00:40;;;;;;;22.00;19.70;;;;;;;21.95;89.79;100675.29;104901;1260;75044;-64
2023/06/10 08:03:08;;;;;;;19.70;17.70;;;;;;;21.99;89.43;100678.48;104881;1264;83590;-63
2023/06/10 08:05:39;;;;;;;20.00;18.00;;;;;;;22.09;89.23;100677.35;104966;1263;73766;-67
2023/06/10 08:08:08;;;;;;;20.90;17.80;;;;;;;22.17;88.68;100682.58;104906;1265;69238;-67
2023/06/10 08:10:36;;;;;;;18.70;16.90;;;;;;;22.20;88.01;100680.45;104913;1261;69217;-62
2023/06/10 08:13:04;;;;;;;17.90;16.30;;;;;;;22.22;87.58;100680.22;104926;1260;73854;-65
2023/06/10 08:15:33;;;;;;;20.80;17.20;;;;;;;22.27;87.33;100681.80;104946;1265;83637;-65
2023/06/10 08:18:01;;;;;;;18.80;16.70;;;;;;;22.29;86.94;100686.22;104883;1261;72691;-66
2023/06/10 08:20:29;;;;;;;18.10;16.30;;;;;;;22.37;86.86;100687.95;104909;1263;69252;-65
2023/06/10 08:22:58;;;;;;;20.30;16.50;;;;;;;22.41;86.25;100689.20;104906;1265;69213;-68
2023/06/10 08:25:27;;;;;;;18.40;16.00;;;;;;;22.45;86.01;100687.58;104917;1265;73924;-63
2023/06/10 08:27:57;;;;;;;18.10;16.40;;;;;;;22.52;85.83;100687.91;104957;1264;83467;-65
2023/06/10 08:30:25;;;;;;;17.10;15.10;;;;;;;22.63;85.68;100685.83;104932;1261;73465;-64
2023/06/10 08:32:55;;;;;;;16.70;14.50;;;;;;;22.77;85.48;100684.61;104919;1265;69199;-65
2023/06/10 08:35:24;;;;;;;14.50;13.00;;;;;;;22.92;85.30;100683.38;104930;1260;69234;-63
2023/06/10 08:37:52;;;;;;;13.50;12.20;;;;;;;23.04;84.38;100681.86;104932;1261;75018;-63
2023/06/10 08:40:21;;;;;;;13.40;12.00;;;;;;;23.15;83.85;100680.23;104745;1265;83870;-62
2023/06/10 08:43:01;;;;;;;16.80;13.60;;;;;;;23.29;82.97;100677.55;104909;1260;72702;-64
2023/06/10 08:45:35;;;;;;;14.50;11.80;;;;;;;23.40;82.63;100681.64;104913;1265;69163;-64
2023/06/10 08:48:06;;;;;;;13.60;12.20;;;;;;;23.49;81.88;100683.52;104918;1261;69100;-65
2023/06/10 08:50:37;;;;;;;13.50;11.90;;;;;;;23.58;81.46;100686.59;104872;1260;74780;-64
2023/06/10 08:53:06;;;;;;;14.20;11.80;;;;;;;23.66;80.81;100687.40;104953;1261;83251;-63
2023/06/10 08:55:39;;;;;;;12.90;11.60;;;;;;;23.68;79.70;100684.39;104964;1265;72440;-68
2023/06/10 08:58:07;;;;;;;12.40;11.10;;;;;;;23.67;79.21;100679.80;105017;1265;69235;-66
2023/06/10 09:00:36;;;;;;;13.50;11.90;;;;;;;23.74;79.08;100682.92;104986;1263;69212;-66
2023/06/10 09:03:05;;;;;;;17.80;11.80;;;;;;;23.87;79.27;100677.16;104979;1261;74274;-68
2023/06/10 09:05:36;;;;;;;12.00;10.30;;;;;;;24.03;78.77;100673.58;104928;1265;83380;-64
2023/06/10 09:08:07;;;;;;;13.90;9.80;;;;;;;24.22;78.77;100677.61;104911;1260;73806;-66
2023/06/10 09:10:36;;;;;;;9.70;8.40;;;;;;;24.42;77.16;100676.89;104947;1265;69189;-67
2023/06/10 09:13:04;;;;;;;11.00;9.00;;;;;;;24.56;75.94;100678.16;104979;1260;69331;-66
2023/06/10 09:15:32;;;;;;;10.90;8.30;;;;;;;24.69;75.86;100677.10;104757;1260;74955;-63
2023/06/10 09:18:01;;;;;;;8.40;7.40;;;;;;;24.85;75.56;100676.52;105069;1264;82416;-65
2023/06/10 09:20:30;;;;;;;10.30;7.70;;;;;;;24.97;74.46;100677.58;104992;1266;73726;-64
2023/06/10 09:23:00;;;;;;;9.10;7.70;;;;;;;25.06;73.82;100677.23;104951;1261;70480;-65
2023/06/10 09:25:38;;;;;;;10.20;7.70;;;;;;;25.15;73.07;100674.24;104993;1265;69187;-68
2023/06/10 09:28:14;;;;;;;11.50;6.60;;;;;;;25.24;72.10;100672.73;104888;1265;74550;-65
2023/06/10 09:30:43;;;;;;;7.90;6.90;;;;;;;25.31;71.44;100672.27;105049;1260;83304;-65
2023/06/10 09:33:14;;;;;;;6.90;6.20;;;;;;;25.35;70.95;100663.78;104960;1261;73690;-65
2023/06/10 09:35:47;;;;;;;7.50;6.10;;;;;;;25.38;69.85;100662.09;104942;1260;69081;-64
2023/06/10 09:38:21;;;;;;;7.70;6.50;;;;;;;25.46;69.87;100662.92;104981;1260;69190;-67
2023/06/10 09:40:54;;;;;;;9.00;6.90;;;;;;;25.57;69.44;100665.11;104964;1261;75019;-66
2023/06/10 09:43:23;;;;;;;7.40;6.50;;;;;;;25.68;68.88;100666.22;104977;1263;82559;-67
2023/06/10 09:45:54;;;;;;;7.70;6.60;;;;;;;25.76;68.19;100669.30;104855;1260;73769;-65
2023/06/10 09:48:23;;;;;;;10.00;6.10;;;;;;;25.84;67.27;100665.73;104908;1263;69182;-63
2023/06/10 09:50:52;;;;;;;7.40;6.70;;;;;;;25.96;66.85;100661.20;104967;1261;69198;-64
2023/06/10 09:53:20;;;;;;;9.50;5.90;;;;;;;26.09;65.98;100659.73;104997;1260;74885;-66
2023/06/10 09:55:49;;;;;;;7.00;5.90;;;;;;;26.23;65.30;100659.25;105002;1265;83427;-66
2023/06/10 09:58:17;;;;;;;6.60;6.00;;;;;;;26.36;65.03;100659.88;105020;1260;73822;-65
2023/06/10 10:00:52;;;;;;;8.10;5.60;;;;;;;26.56;64.66;100660.32;104995;1265;69216;-63
2023/06/10 10:03:24;;;;;;;7.70;5.40;;;;;;;26.71;63.84;100660.34;104899;1265;69135;-64
2023/06/10 10:05:59;;;;;;;10.60;5.40;;;;;;;26.89;63.13;100662.31;104965;1260;74684;-65
2023/06/10 10:08:28;;;;;;;7.10;5.70;;;;;;;27.03;62.22;100659.30;104950;1262;83188;-68
2023/06/10 10:10:57;;;;;;;6.00;4.80;;;;;;;27.09;61.80;100658.48;105027;1260;73776;-64
2023/06/10 10:13:27;;;;;;;5.40;4.90;;;;;;;27.01;60.57;100657.50;104805;1261;69222;-66
2023/06/10 10:15:57;;;;;;;6.10;5.20;;;;;;;27.04;60.05;100653.65;104998;1261;69125;-65
2023/06/10 10:18:30;;;;;;;7.40;5.20;;;;;;;27.14;59.50;100651.83;105000;1265;73651;-68
2023/06/10 10:21:01;;;;;;;6.80;5.00;;;;;;;27.25;58.64;100645.58;105005;1261;83746;-68
2023/06/10 10:23:34;;;;;;;7.10;5.10;;;;;;;27.38;58.20;100640.20;104960;1261;71819;-65
2023/06/10 10:26:05;;;;;;;9.10;4.70;;;;;;;27.59;57.90;100636.20;104943;1265;69106;-66
2023/06/10 10:28:42;;;;;;;6.90;5.00;;;;;;;27.78;56.91;100644.13;104939;1265;69130;-65
2023/06/10 10:31:12;;;;;;;9.40;4.20;;;;;;;27.92;55.89;100642.35;104964;1265;73481;-65
2023/06/10 10:33:48;;;;;;;6.60;4.60;;;;;;;28.11;54.86;100645.09;104960;1265;83614;-65
2023/06/10 10:36:18;;;;;;;8.50;4.70;;;;;;;28.32;54.23;100643.20;104923;1260;73460;-65
2023/06/10 10:38:49;;;;;;;5.70;4.40;;;;;;;28.60;53.58;100644.00;104922;1261;69193;-64
2023/06/10 10:41:20;;;;;;;5.40;4.20;;;;;;;28.88;52.81;100642.69;104913;1261;69136;-65
2023/06/10 10:43:51;;;;;;;7.20;4.40;;;;;;;29.17;52.16;100635.84;104967;1265;75287;-66
2023/06/10 10:46:19;;;;;;;6.90;4.30;;;;;;;29.47;51.52;100637.33;105023;1261;83390;-67
2023/06/10 10:48:53;;;;;;;6.30;4.10;;;;;;;29.77;50.73;100639.75;105030;1262;73671;-67
2023/06/10 10:51:25;;;;;;;5.40;4.20;;;;;;;30.06;49.81;100636.22;104944;1265;69218;-66
2023/06/10 10:54:14;;;;;;;6.70;4.50;;;;;;;30.30;48.51;100636.29;105010;1260;69219;-63
2023/06/10 10:57:18;;;;;;;8.70;3.80;;;;;;;30.50;47.63;100636.03;104984;1261;74932;-64
2023/06/10 10:59:52;;;;;;;10.50;4.70;;;;;;;30.87;47.10;100632.85;105032;1260;83159;-64
2023/06/10 11:02:43;;;;;;;6.90;4.10;;;;;;;31.21;46.68;100630.36;104931;1262;74222;-67
2023/06/10 11:05:15;;;;;;;5.90;4.20;;;;;;;31.57;45.68;100629.07;104953;1263;69087;-66
2023/06/10 11:07:57;;;;;;;7.60;4.60;;;;;;;31.70;44.70;100625.31;104954;1260;69106;-65
2023/06/10 11:10:33;;;;;;;8.50;4.10;;;;;;;31.76;43.85;100620.45;104957;1263;74996;-67
2023/06/10 11:13:15;;;;;;;5.70;4.20;;;;;;;31.86;43.51;100624.95;104948;1265;83316;-69
2023/06/10 11:15:46;;;;;;;5.30;3.90;;;;;;;32.03;42.45;100617.64;104950;1260;73546;-65
2023/06/10 11:18:25;;;;;;;6.30;4.00;;;;;;;32.21;42.11;100621.54;104927;1265;69190;-65
2023/06/10 11:20:57;;;;;;;6.70;4.10;;;;;;;32.35;41.43;100619.62;104966;1261;69191;-64